Orion Explorer — LNDT — position and weather

sailwx.info

Track history (hours):
 
Tides and Currents Weather Stations Pressure Air Temp Water Temp Dewpoint Dewpoint Depression Visibility Wind Speed Wind Dir Waves Ship Positions

Orion Explorer

Last reported at 2015-Apr-26 14:16 UTC. Time now 2015-Apr-28 02:09 UTC.
Position N 69°35' E 018°51'.

Length 59 m; draft 4.5 m.

Type: Cargo ship. MMSI: 259496000.

Date/timePositionNaut miles runAvg speedWind from/ knotsBaromVisibWave heightAir tempDewpointWater temp
2015-Apr-26 14:16N 69°35' E 018°51'710.1
2015-Apr-26 13:33N 69°41' E 019°02'8410.4
2015-Apr-26 05:25N 70°28' E 022°28'1011.1
2015-Apr-26 04:33N 70°31' E 022°56'1110.9
2015-Apr-26 03:33N 70°39' E 023°19'  
2015-Apr-23 23:32N 70°44' E 023°37'1010.2
2015-Apr-23 22:33N 70°34' E 023°35'2 2.1
2015-Apr-23 21:33N 70°32' E 023°33'7 6.6
2015-Apr-23 20:33N 70°38' E 023°22'1110.8
2015-Apr-23 19:33N 70°31' E 022°57'91 4.1
2015-Apr-22 21:15N 69°45' E 019°07'811.0
2015-Apr-22 20:33N 69°38' E 018°56'  
2015-Apr-19 11:33N 69°38' E 018°57'0 0.5
2015-Apr-19 10:33N 69°39' E 018°57'0 0.0
2015-Apr-19 09:33N 69°39' E 018°57'0 0.0
2015-Apr-19 08:33N 69°39' E 018°57'0 0.0
2015-Apr-19 07:33N 69°39' E 018°57'0 0.0
2015-Apr-19 06:33N 69°39' E 018°57'0 0.0
2015-Apr-19 05:33N 69°39' E 018°57'0 0.0
2015-Apr-19 04:33N 69°39' E 018°57'0 0.0
2015-Apr-19 03:33N 69°39' E 018°57'0 0.0
2015-Apr-19 02:33N 69°39' E 018°57'0 0.0
2015-Apr-19 01:33N 69°39' E 018°57'0 0.0
2015-Apr-19 00:33N 69°39' E 018°57'0 0.0
2015-Apr-18 23:33N 69°39' E 018°57'3 3.1
2015-Apr-18 22:31N 69°41' E 019°02'8410.2
2015-Apr-18 14:16N 70°28' E 022°27'810.6
2015-Apr-18 13:33N 70°30' E 022°49'10 9.7
2015-Apr-18 12:33N 70°36' E 023°12'10 9.7
2015-Apr-18 11:33N 70°43' E 023°33'9 0.2
2015-Apr-16 16:28N 70°49' E 023°54'1010.8
2015-Apr-16 15:33N 70°42' E 023°34'10 9.5
2015-Apr-16 14:33N 70°32' E 023°33'  
Track history (hours):
 
Tides and Currents Weather Stations Pressure Air Temp Water Temp Dewpoint Dewpoint Depression Visibility Wind Speed Wind Dir Waves Ship Positions

Orion Explorer

Last reported at 2015-Apr-26 14:16 UTC. Time now 2015-Apr-28 02:09 UTC.
Position N 69°35' E 018°51'.

Length 59 m; draft 4.5 m.

Type: Cargo ship. MMSI: 259496000.

Date/timePositionNaut miles runAvg speedWind from/ knotsBaromVisibWave heightAir tempDewpointWater temp
2015-Apr-26 14:16N 69°35' E 018°51'710.1
2015-Apr-26 13:33N 69°41' E 019°02'8410.4
2015-Apr-26 05:25N 70°28' E 022°28'1011.1
2015-Apr-26 04:33N 70°31' E 022°56'1110.9
2015-Apr-26 03:33N 70°39' E 023°19'  
2015-Apr-23 23:32N 70°44' E 023°37'1010.2
2015-Apr-23 22:33N 70°34' E 023°35'2 2.1
2015-Apr-23 21:33N 70°32' E 023°33'7 6.6
2015-Apr-23 20:33N 70°38' E 023°22'1110.8
2015-Apr-23 19:33N 70°31' E 022°57'91 4.1
2015-Apr-22 21:15N 69°45' E 019°07'811.0
2015-Apr-22 20:33N 69°38' E 018°56'  
2015-Apr-19 11:33N 69°38' E 018°57'0 0.5
2015-Apr-19 10:33N 69°39' E 018°57'0 0.0
2015-Apr-19 09:33N 69°39' E 018°57'0 0.0
2015-Apr-19 08:33N 69°39' E 018°57'0 0.0
2015-Apr-19 07:33N 69°39' E 018°57'0 0.0
2015-Apr-19 06:33N 69°39' E 018°57'0 0.0
2015-Apr-19 05:33N 69°39' E 018°57'0 0.0
2015-Apr-19 04:33N 69°39' E 018°57'0 0.0
2015-Apr-19 03:33N 69°39' E 018°57'0 0.0
2015-Apr-19 02:33N 69°39' E 018°57'0 0.0
2015-Apr-19 01:33N 69°39' E 018°57'0 0.0
2015-Apr-19 00:33N 69°39' E 018°57'0 0.0
2015-Apr-18 23:33N 69°39' E 018°57'3 3.1
2015-Apr-18 22:31N 69°41' E 019°02'8410.2
2015-Apr-18 14:16N 70°28' E 022°27'810.6
2015-Apr-18 13:33N 70°30' E 022°49'10 9.7
2015-Apr-18 12:33N 70°36' E 023°12'10 9.7
2015-Apr-18 11:33N 70°43' E 023°33'9 0.2
2015-Apr-16 16:28N 70°49' E 023°54'1010.8
2015-Apr-16 15:33N 70°42' E 023°34'10 9.5
2015-Apr-16 14:33N 70°32' E 023°33'  

Dump ship's entire track history